Time;durP1;ratioP1;P1;durP2;ratioP2;P2;SDS_P1;SDS_P2;PMS_P1;PMS_P2;Temp;Humidity;BMP_temperature;BMP_pressure;BME280_temperature;BME280_humidity;BME280_pressure;Samples;Min_cycle;Max_cycle;Signal;HPM_P1;HPM_P2
2023/03/19 00:02:17;;;;;;;3.42;0.82;;;19.40;68.20;;;;;;5032828;28;20532;-74
2023/03/19 00:04:42;;;;;;;2.78;0.98;;;19.40;68.30;;;;;;5065374;28;20049;-74
2023/03/19 00:07:08;;;;;;;12.80;1.08;;;19.40;68.40;;;;;;5038975;28;20361;-74
2023/03/19 00:09:34;;;;;;;2.00;1.10;;;19.30;68.60;;;;;;5053133;28;20387;-75
2023/03/19 00:11:59;;;;;;;2.60;0.90;;;19.30;68.70;;;;;;5051954;28;20088;-74
2023/03/19 00:14:25;;;;;;;3.15;1.00;;;19.30;68.70;;;;;;5051599;28;20146;-74
2023/03/19 00:16:51;;;;;;;4.35;1.10;;;19.30;68.80;;;;;;5053113;28;20466;-73
2023/03/19 00:19:16;;;;;;;2.88;0.80;;;19.30;68.90;;;;;;5051664;28;20037;-74
2023/03/19 00:21:42;;;;;;;2.28;1.10;;;19.30;69.00;;;;;;5051544;28;20013;-74
2023/03/19 00:24:08;;;;;;;2.90;0.80;;;19.30;69.00;;;;;;5046231;28;20059;-74
2023/03/19 00:26:35;;;;;;;2.33;1.13;;;19.30;69.00;;;;;;5037576;28;20017;-74
2023/03/19 00:29:00;;;;;;;5.15;0.98;;;19.20;69.10;;;;;;5049590;28;20029;-74
2023/03/19 00:31:27;;;;;;;2.30;0.70;;;19.20;69.20;;;;;;5050644;28;20021;-74
2023/03/19 00:33:53;;;;;;;2.15;0.68;;;19.20;69.40;;;;;;5049513;28;20435;-74
2023/03/19 00:36:19;;;;;;;1.17;0.60;;;19.20;69.50;;;;;;5041701;28;20031;-74
2023/03/19 00:38:45;;;;;;;3.10;1.00;;;19.10;69.50;;;;;;5049546;28;20013;-74
2023/03/19 00:41:11;;;;;;;1.88;0.80;;;19.10;69.60;;;;;;5049316;28;20083;-74
2023/03/19 00:43:37;;;;;;;3.30;1.02;;;19.10;69.60;;;;;;5049433;28;20020;-74
2023/03/19 00:46:02;;;;;;;1.48;0.93;;;19.10;69.70;;;;;;5032771;28;20063;-74
2023/03/19 00:48:28;;;;;;;3.47;1.10;;;19.10;69.70;;;;;;5032608;28;20036;-74
2023/03/19 00:50:54;;;;;;;2.17;0.70;;;19.10;69.70;;;;;;5048960;28;20049;-74
2023/03/19 00:53:20;;;;;;;1.80;0.90;;;19.00;69.80;;;;;;5050373;28;20469;-74
2023/03/19 00:55:46;;;;;;;1.13;0.70;;;19.00;69.70;;;;;;5049161;28;20017;-75
2023/03/19 00:58:12;;;;;;;1.63;0.90;;;19.00;69.70;;;;;;5051439;28;20028;-74
2023/03/19 01:00:37;;;;;;;2.03;0.70;;;19.00;69.80;;;;;;5049199;28;20513;-74
2023/03/19 01:03:04;;;;;;;1.00;0.85;;;19.00;69.90;;;;;;5050308;28;20374;-74
2023/03/19 01:05:30;;;;;;;1.95;1.00;;;18.90;69.90;;;;;;5032378;28;20519;-75
2023/03/19 01:07:55;;;;;;;2.08;0.80;;;18.90;69.90;;;;;;5049001;28;20138;-74
2023/03/19 01:10:22;;;;;;;1.52;0.75;;;18.90;69.80;;;;;;5049080;28;20029;-74
2023/03/19 01:12:47;;;;;;;1.45;0.93;;;18.90;69.90;;;;;;5032301;28;20017;-74
2023/03/19 01:15:13;;;;;;;3.78;1.27;;;18.90;70.00;;;;;;5048699;28;20085;-74
2023/03/19 01:17:39;;;;;;;0.98;0.77;;;18.90;70.20;;;;;;5048983;28;20358;-73
2023/03/19 01:20:11;;;;;;;1.17;0.82;;;18.90;70.10;;;;;;5048816;28;20381;-74
2023/03/19 01:22:37;;;;;;;2.20;0.95;;;18.90;70.20;;;;;;5032509;28;20157;-74
2023/03/19 01:25:04;;;;;;;2.83;0.80;;;18.90;70.30;;;;;;5047794;28;20477;-74
2023/03/19 01:27:30;;;;;;;1.30;0.80;;;18.90;70.30;;;;;;5049017;28;20075;-74
2023/03/19 01:29:56;;;;;;;0.55;0.50;;;18.80;70.30;;;;;;5050048;28;20477;-74
2023/03/19 01:32:22;;;;;;;1.65;0.90;;;18.80;70.30;;;;;;5048492;28;20025;-74
2023/03/19 01:34:47;;;;;;;2.58;0.98;;;18.80;70.40;;;;;;5049854;28;20065;-74
2023/03/19 01:37:13;;;;;;;2.30;0.90;;;18.80;70.30;;;;;;5047950;28;20505;-74
2023/03/19 01:39:39;;;;;;;0.70;0.68;;;18.80;70.30;;;;;;5048814;28;20036;-74
2023/03/19 01:42:05;;;;;;;1.13;0.80;;;18.80;70.40;;;;;;5047850;28;20024;-74
2023/03/19 01:44:35;;;;;;;1.15;0.70;;;18.80;70.50;;;;;;5048561;28;20068;-74
2023/03/19 01:47:06;;;;;;;1.92;0.95;;;18.80;70.50;;;;;;5048244;28;20017;-74
2023/03/19 01:49:31;;;;;;;2.63;0.98;;;18.70;70.40;;;;;;5048841;28;20035;-74
2023/03/19 01:51:58;;;;;;;2.45;1.00;;;18.70;70.50;;;;;;5049370;28;20425;-74
2023/03/19 01:54:24;;;;;;;1.92;0.80;;;18.70;70.50;;;;;;5050451;28;20432;-74
2023/03/19 01:56:57;;;;;;;2.53;0.95;;;18.70;70.70;;;;;;5050673;28;20131;-74
2023/03/19 01:59:30;;;;;;;0.65;0.65;;;18.70;70.80;;;;;;5050133;28;20029;-74
2023/03/19 02:02:00;;;;;;;1.38;1.00;;;18.70;70.70;;;;;;5050179;28;20087;-73
2023/03/19 02:04:26;;;;;;;4.18;1.08;;;18.70;71.00;;;;;;5050355;28;20033;-74
2023/03/19 02:06:56;;;;;;;1.17;0.73;;;18.70;71.00;;;;;;5050615;28;20103;-74
2023/03/19 02:09:21;;;;;;;2.15;0.90;;;18.60;71.00;;;;;;5050255;28;20021;-74
2023/03/19 02:11:47;;;;;;;2.53;0.80;;;18.70;71.10;;;;;;5050369;28;20048;-74
2023/03/19 02:14:13;;;;;;;1.48;0.70;;;18.60;71.00;;;;;;5050559;28;20395;-74
2023/03/19 02:16:38;;;;;;;5.32;0.60;;;18.60;71.00;;;;;;5066576;28;20448;-74
2023/03/19 02:19:05;;;;;;;1.25;0.85;;;18.60;71.20;;;;;;5051545;28;20064;-73
2023/03/19 02:21:31;;;;;;;2.35;1.30;;;18.60;71.20;;;;;;5067055;28;20048;-74
2023/03/19 02:24:12;;;;;;;1.13;0.70;;;18.60;71.30;;;;;;5050473;28;20060;-74
2023/03/19 02:26:37;;;;;;;3.47;0.90;;;18.60;71.70;;;;;;5054994;28;20131;-74
2023/03/19 02:29:03;;;;;;;3.70;0.80;;;18.50;71.40;;;;;;5053837;28;20029;-74
2023/03/19 02:31:29;;;;;;;1.10;0.70;;;18.50;71.50;;;;;;5054656;28;20029;-74
2023/03/19 02:34:27;;;;;;;1.70;0.73;;;18.50;71.50;;;;;;5087150;28;20021;-74
2023/03/19 02:36:58;;;;;;;2.00;0.60;;;18.50;71.30;;;;;;5054853;28;20416;-74
2023/03/19 02:39:33;;;;;;;1.92;0.80;;;18.50;71.50;;;;;;5070957;28;20029;-74
2023/03/19 02:41:59;;;;;;;2.53;1.25;;;18.50;71.60;;;;;;5070521;28;20526;-74
2023/03/19 02:44:25;;;;;;;1.13;0.80;;;18.50;71.60;;;;;;5053534;28;20274;-74
2023/03/19 02:46:51;;;;;;;2.58;0.85;;;18.50;71.60;;;;;;5054595;28;20029;-74
2023/03/19 02:49:17;;;;;;;1.15;0.77;;;18.50;71.70;;;;;;5054740;28;20071;-74
2023/03/19 02:51:43;;;;;;;1.30;0.73;;;18.50;71.90;;;;;;5054212;28;20056;-74
2023/03/19 02:54:09;;;;;;;0.70;0.50;;;18.50;71.90;;;;;;5055195;28;20017;-74
2023/03/19 02:56:35;;;;;;;1.30;0.55;;;18.50;72.00;;;;;;5053368;28;20021;-74
2023/03/19 02:59:01;;;;;;;2.08;0.68;;;18.40;72.00;;;;;;5053355;28;20068;-74
2023/03/19 03:01:28;;;;;;;1.60;0.82;;;18.50;72.00;;;;;;5054364;28;20025;-74
2023/03/19 03:03:54;;;;;;;0.80;0.60;;;18.40;72.00;;;;;;5053113;28;20017;-74
2023/03/19 03:06:20;;;;;;;1.42;0.70;;;18.40;72.00;;;;;;5053196;28;20032;-74
2023/03/19 03:08:46;;;;;;;2.53;0.60;;;18.40;72.10;;;;;;5052926;28;20401;-74
2023/03/19 03:11:11;;;;;;;1.35;0.60;;;18.40;72.00;;;;;;5053205;28;20029;-74
2023/03/19 03:13:37;;;;;;;2.90;0.73;;;18.40;72.10;;;;;;5052949;28;20071;-73
2023/03/19 03:16:03;;;;;;;1.20;0.70;;;18.40;72.00;;;;;;5054060;28;20112;-74
2023/03/19 03:18:29;;;;;;;2.63;0.70;;;18.40;72.10;;;;;;5052658;28;20096;-74
2023/03/19 03:20:55;;;;;;;1.38;0.80;;;18.40;72.10;;;;;;5054338;28;20520;-74
2023/03/19 03:23:21;;;;;;;1.50;0.57;;;18.40;72.10;;;;;;5053937;28;20044;-74
2023/03/19 03:25:50;;;;;;;0.77;0.60;;;18.40;72.10;;;;;;5052840;28;20485;-73
2023/03/19 03:28:16;;;;;;;1.75;0.70;;;18.40;72.20;;;;;;5054038;28;20075;-74
2023/03/19 03:30:42;;;;;;;1.58;0.75;;;18.40;72.20;;;;;;5052443;28;20025;-74
2023/03/19 03:33:08;;;;;;;1.35;0.63;;;18.40;72.20;;;;;;5053603;28;20021;-74
2023/03/19 03:35:34;;;;;;;1.60;0.75;;;18.40;72.20;;;;;;5053908;28;20489;-74
2023/03/19 03:37:59;;;;;;;2.53;0.80;;;18.40;72.20;;;;;;5053160;28;20041;-74
2023/03/19 03:40:26;;;;;;;1.98;0.65;;;18.40;72.20;;;;;;5052440;28;20374;-74
2023/03/19 03:42:51;;;;;;;0.57;0.50;;;18.40;72.20;;;;;;5085602;28;20028;-74
2023/03/19 03:45:17;;;;;;;1.33;0.80;;;18.40;72.40;;;;;;5085722;28;20021;-74
2023/03/19 03:47:43;;;;;;;0.93;0.45;;;18.40;72.20;;;;;;5053439;28;20078;-74
2023/03/19 03:50:12;;;;;;;0.60;0.47;;;18.30;72.20;;;;;;5069042;28;20089;-73
2023/03/19 03:52:38;;;;;;;0.80;0.52;;;18.30;72.40;;;;;;5084662;28;20519;-74
2023/03/19 03:55:04;;;;;;;0.50;0.50;;;18.30;72.30;;;;;;5068860;28;20021;-74
2023/03/19 03:57:30;;;;;;;1.02;0.60;;;18.30;72.30;;;;;;5085483;28;20483;-74
2023/03/19 03:59:55;;;;;;;1.90;0.52;;;18.30;72.40;;;;;;5034227;28;20108;-74
2023/03/19 04:02:21;;;;;;;0.63;0.55;;;18.30;72.40;;;;;;5065336;28;20029;-74
2023/03/19 04:04:47;;;;;;;0.85;0.60;;;18.30;72.40;;;;;;5065236;28;20057;-74
2023/03/19 04:07:14;;;;;;;0.65;0.43;;;18.30;72.40;;;;;;5033217;28;20060;-74
2023/03/19 04:09:40;;;;;;;1.48;0.57;;;18.30;72.50;;;;;;5064973;28;20029;-74
2023/03/19 04:12:06;;;;;;;2.15;0.52;;;18.30;72.50;;;;;;5065178;28;20076;-74
2023/03/19 04:14:32;;;;;;;1.92;0.70;;;18.30;72.50;;;;;;5032660;28;20448;-74
2023/03/19 04:16:58;;;;;;;2.85;0.63;;;18.20;72.50;;;;;;5033115;28;20029;-74
2023/03/19 04:19:23;;;;;;;1.10;0.50;;;18.20;72.50;;;;;;5065530;28;20398;-74
2023/03/19 04:21:49;;;;;;;0.93;0.60;;;18.20;72.40;;;;;;5064895;28;20463;-74
2023/03/19 04:24:14;;;;;;;0.73;0.43;;;18.30;72.60;;;;;;5033017;28;20075;-75
2023/03/19 04:26:40;;;;;;;2.75;0.52;;;18.30;72.70;;;;;;5032819;28;20078;-74
2023/03/19 04:29:07;;;;;;;0.70;0.63;;;18.20;72.70;;;;;;5064699;28;20061;-74
2023/03/19 04:31:33;;;;;;;1.48;0.65;;;18.20;72.70;;;;;;5041527;28;20025;-74
2023/03/19 04:33:59;;;;;;;1.27;0.50;;;18.20;72.80;;;;;;5051244;28;20029;-74
2023/03/19 04:36:25;;;;;;;0.95;0.50;;;18.20;72.70;;;;;;5052638;28;20032;-74
2023/03/19 04:38:51;;;;;;;1.50;0.60;;;18.20;72.80;;;;;;5034604;28;20025;-75
2023/03/19 04:41:17;;;;;;;1.15;0.60;;;18.20;72.80;;;;;;5052637;28;20029;-74
2023/03/19 04:43:42;;;;;;;2.35;0.60;;;18.20;72.80;;;;;;5052266;28;20033;-74
2023/03/19 04:46:08;;;;;;;0.93;0.60;;;18.20;72.80;;;;;;5052785;28;20036;-74
2023/03/19 04:48:34;;;;;;;1.10;0.60;;;18.20;72.80;;;;;;5051318;28;20029;-74
2023/03/19 04:51:02;;;;;;;0.75;0.60;;;18.20;72.80;;;;;;5051117;28;20091;-74
2023/03/19 04:53:28;;;;;;;1.63;0.60;;;18.20;72.80;;;;;;5068009;28;20500;-74
2023/03/19 04:55:54;;;;;;;1.48;0.77;;;18.20;72.80;;;;;;5050926;28;20108;-73
2023/03/19 04:58:20;;;;;;;1.17;0.50;;;18.20;72.80;;;;;;5051076;28;20021;-74
2023/03/19 05:00:46;;;;;;;0.45;0.40;;;18.20;72.90;;;;;;5051047;28;20047;-74
2023/03/19 05:03:15;;;;;;;1.00;0.47;;;18.20;72.80;;;;;;5051023;28;20021;-74
2023/03/19 05:05:41;;;;;;;1.40;0.55;;;18.20;72.80;;;;;;5050979;28;20053;-74
2023/03/19 05:08:08;;;;;;;1.17;0.65;;;18.20;72.90;;;;;;5052225;28;20540;-74
2023/03/19 05:10:34;;;;;;;0.68;0.45;;;18.20;72.80;;;;;;5050718;28;20531;-74
2023/03/19 05:13:00;;;;;;;1.15;0.40;;;18.20;72.90;;;;;;5050923;28;20025;-74
2023/03/19 05:15:25;;;;;;;1.17;0.50;;;18.10;72.90;;;;;;5052275;28;20378;-74
2023/03/19 05:17:51;;;;;;;1.35;0.80;;;18.20;72.90;;;;;;5051016;28;20029;-74
2023/03/19 05:20:18;;;;;;;1.25;0.60;;;18.20;72.90;;;;;;5050996;28;20021;-74
2023/03/19 05:22:43;;;;;;;1.40;0.50;;;18.20;72.90;;;;;;5034545;28;20531;-74
2023/03/19 05:25:09;;;;;;;0.80;0.60;;;18.10;72.80;;;;;;5050624;28;20025;-74
2023/03/19 05:27:35;;;;;;;1.40;0.70;;;18.20;72.90;;;;;;5052111;28;20025;-74
2023/03/19 05:30:00;;;;;;;1.83;0.60;;;18.10;72.70;;;;;;5050822;28;20037;-74
2023/03/19 05:32:27;;;;;;;1.65;0.63;;;18.10;72.80;;;;;;5051853;28;20028;-74
2023/03/19 05:34:53;;;;;;;1.58;0.52;;;18.10;72.90;;;;;;5067324;28;20060;-74
2023/03/19 05:37:18;;;;;;;3.03;0.73;;;18.10;72.80;;;;;;5051941;28;20055;-74
2023/03/19 05:39:44;;;;;;;1.48;0.63;;;18.10;72.90;;;;;;5051659;28;20024;-74
2023/03/19 05:42:10;;;;;;;1.85;0.63;;;18.10;72.80;;;;;;5067473;28;20489;-74
2023/03/19 05:44:36;;;;;;;1.08;0.70;;;18.10;72.80;;;;;;5052047;28;20037;-74
2023/03/19 05:47:02;;;;;;;1.15;0.50;;;18.10;72.80;;;;;;5083927;28;20052;-74
2023/03/19 05:49:27;;;;;;;2.67;0.63;;;18.10;72.80;;;;;;5051887;28;20468;-74
2023/03/19 05:51:53;;;;;;;1.02;0.60;;;18.10;72.80;;;;;;5051557;28;20037;-74
2023/03/19 05:54:19;;;;;;;0.70;0.50;;;18.10;72.90;;;;;;5051736;28;20083;-74
2023/03/19 05:56:44;;;;;;;2.42;0.98;;;18.10;72.90;;;;;;5051970;28;20024;-74
2023/03/19 05:59:10;;;;;;;1.23;0.50;;;18.10;73.10;;;;;;5071326;28;20128;-74
2023/03/19 06:01:36;;;;;;;1.05;0.47;;;18.00;73.00;;;;;;5067801;28;20393;-74
2023/03/19 06:04:01;;;;;;;0.93;0.47;;;18.00;73.00;;;;;;5050796;28;20389;-74
2023/03/19 06:06:27;;;;;;;1.63;0.70;;;18.10;73.10;;;;;;5035753;28;20032;-74
2023/03/19 06:08:52;;;;;;;0.50;0.50;;;18.10;73.00;;;;;;5035163;28;20032;-74
2023/03/19 06:11:18;;;;;;;1.85;0.90;;;18.10;73.20;;;;;;5067448;28;20022;-74
2023/03/19 06:13:45;;;;;;;0.57;0.40;;;18.10;73.10;;;;;;5050789;28;20499;-74
2023/03/19 06:16:10;;;;;;;1.58;0.73;;;18.00;73.00;;;;;;5035427;28;20017;-74
2023/03/19 06:18:37;;;;;;;0.98;0.40;;;18.00;73.00;;;;;;5035310;28;20386;-73
2023/03/19 06:21:03;;;;;;;2.67;0.60;;;18.00;73.10;;;;;;5050532;28;20040;-74
2023/03/19 06:23:29;;;;;;;1.15;0.60;;;18.00;73.00;;;;;;5035230;28;20486;-74
2023/03/19 06:25:55;;;;;;;1.13;0.40;;;18.00;73.20;;;;;;5067295;28;20055;-74
2023/03/19 06:28:20;;;;;;;0.40;0.40;;;18.00;73.30;;;;;;5067290;28;20120;-74
2023/03/19 06:30:46;;;;;;;1.17;0.73;;;18.00;73.40;;;;;;5067302;28;20153;-74
2023/03/19 06:33:13;;;;;;;0.50;0.32;;;18.00;73.50;;;;;;5084214;28;20070;-74
2023/03/19 06:35:38;;;;;;;0.60;0.50;;;18.00;73.50;;;;;;5055075;28;20013;-73
2023/03/19 06:38:05;;;;;;;0.68;0.47;;;17.90;73.50;;;;;;5086908;28;20028;-74
2023/03/19 06:40:30;;;;;;;0.77;0.32;;;18.00;73.50;;;;;;5055029;28;20032;-73
2023/03/19 06:42:56;;;;;;;1.33;0.40;;;17.90;73.50;;;;;;5053405;28;20396;-74
2023/03/19 06:45:22;;;;;;;1.92;0.73;;;17.90;73.50;;;;;;5087209;28;20013;-73
2023/03/19 06:47:47;;;;;;;2.63;0.60;;;17.90;73.50;;;;;;5054657;28;20400;-73
2023/03/19 06:50:15;;;;;;;1.90;0.57;;;17.90;73.70;;;;;;5054683;28;20025;-73
2023/03/19 06:52:41;;;;;;;1.45;0.60;;;18.00;73.50;;;;;;5086332;28;20056;-74
2023/03/19 06:55:07;;;;;;;3.08;0.70;;;18.00;73.60;;;;;;5070023;28;20452;-74
2023/03/19 06:57:33;;;;;;;2.70;0.50;;;18.00;73.60;;;;;;5054585;28;20099;-74
2023/03/19 06:59:59;;;;;;;1.45;0.65;;;18.00;73.90;;;;;;5086628;28;20025;-74
2023/03/19 07:02:25;;;;;;;1.95;0.70;;;17.90;73.80;;;;;;5053060;28;20098;-74
2023/03/19 07:04:51;;;;;;;1.77;0.60;;;17.90;73.80;;;;;;5054415;28;20025;-74
2023/03/19 07:07:17;;;;;;;1.90;0.60;;;17.90;73.80;;;;;;5054220;28;20040;-74
2023/03/19 07:09:42;;;;;;;2.47;0.60;;;18.00;73.80;;;;;;5053050;28;20274;-73
2023/03/19 07:12:08;;;;;;;1.77;0.50;;;17.90;73.80;;;;;;5051986;28;20104;-74
2023/03/19 07:14:34;;;;;;;1.50;0.80;;;17.90;73.80;;;;;;5053011;28;20144;-74
2023/03/19 07:17:00;;;;;;;2.97;0.50;;;17.90;73.90;;;;;;5052753;28;20021;-73
2023/03/19 07:19:25;;;;;;;0.88;0.40;;;17.90;73.90;;;;;;5053138;28;20033;-74
2023/03/19 07:21:51;;;;;;;0.52;0.40;;;17.90;73.90;;;;;;5053948;28;20099;-74
2023/03/19 07:24:17;;;;;;;1.40;0.70;;;17.90;74.00;;;;;;5052815;28;20031;-73
2023/03/19 07:26:42;;;;;;;4.82;0.75;;;17.90;74.00;;;;;;5052850;28;20045;-74
2023/03/19 07:29:08;;;;;;;1.50;0.55;;;17.90;73.90;;;;;;5053766;28;20473;-74
2023/03/19 07:31:34;;;;;;;1.30;0.57;;;17.90;73.90;;;;;;5052737;28;20104;-74
2023/03/19 07:34:00;;;;;;;1.00;0.40;;;17.90;74.00;;;;;;5052596;28;20024;-73
2023/03/19 07:36:25;;;;;;;0.63;0.63;;;17.90;74.00;;;;;;5053522;28;20075;-74
2023/03/19 07:38:51;;;;;;;1.40;0.40;;;17.90;74.00;;;;;;5053792;28;20020;-74
2023/03/19 07:41:17;;;;;;;0.45;0.32;;;17.90;74.10;;;;;;5053791;28;20064;-74
2023/03/19 07:43:42;;;;;;;1.23;0.38;;;17.90;74.10;;;;;;5052523;28;20029;-74
2023/03/19 07:46:08;;;;;;;1.60;0.70;;;17.90;74.10;;;;;;5052550;28;20029;-74
2023/03/19 07:48:34;;;;;;;2.30;0.43;;;17.90;74.10;;;;;;5052264;28;20028;-74
2023/03/19 07:51:00;;;;;;;2.05;0.70;;;17.90;74.10;;;;;;5051930;28;20067;-74
2023/03/19 07:53:26;;;;;;;8.13;0.85;;;17.90;74.00;;;;;;5053597;28;20024;-73
2023/03/19 07:55:51;;;;;;;0.65;0.52;;;17.90;74.10;;;;;;5052204;28;20021;-73
2023/03/19 07:58:17;;;;;;;1.25;0.50;;;17.90;74.10;;;;;;5047828;28;20017;-74
2023/03/19 08:00:46;;;;;;;1.10;0.57;;;17.90;74.10;;;;;;5048705;28;20108;-73
2023/03/19 08:03:12;;;;;;;1.15;0.70;;;17.80;74.10;;;;;;5048303;28;20049;-73
2023/03/19 08:05:38;;;;;;;1.67;0.40;;;17.80;74.10;;;;;;5065078;28;20048;-73
2023/03/19 08:08:04;;;;;;;0.95;0.50;;;17.90;74.10;;;;;;5065206;28;20052;-74
2023/03/19 08:10:30;;;;;;;1.65;0.60;;;17.80;74.10;;;;;;5033357;28;20021;-74
2023/03/19 08:12:55;;;;;;;0.65;0.50;;;17.80;74.10;;;;;;5048552;28;20418;-74
2023/03/19 08:15:21;;;;;;;3.78;0.70;;;17.80;74.10;;;;;;5032998;28;20064;-73
2023/03/19 08:17:47;;;;;;;0.90;0.57;;;17.80;74.20;;;;;;5033108;28;20152;-74
2023/03/19 08:20:17;;;;;;;1.23;0.50;;;17.80;74.20;;;;;;5048211;28;20064;-74
2023/03/19 08:22:44;;;;;;;1.73;0.57;;;17.80;74.20;;;;;;5032929;28;20406;-74
2023/03/19 08:25:10;;;;;;;2.05;0.30;;;17.80;74.20;;;;;;5047821;28;20040;-74
2023/03/19 08:27:35;;;;;;;2.80;0.52;;;17.80;74.30;;;;;;5048386;28;20025;-74
2023/03/19 08:30:03;;;;;;;1.92;0.65;;;17.80;74.30;;;;;;5032670;28;20076;-74
2023/03/19 08:32:29;;;;;;;1.42;0.60;;;17.80;74.30;;;;;;5058950;28;20017;-74
2023/03/19 08:34:54;;;;;;;1.23;0.45;;;17.80;74.30;;;;;;5051367;28;20030;-74
2023/03/19 08:37:20;;;;;;;1.23;0.50;;;17.80;74.20;;;;;;5052500;28;20020;-74
2023/03/19 08:39:46;;;;;;;0.95;0.50;;;17.80;74.30;;;;;;5051543;28;20029;-74
2023/03/19 08:42:11;;;;;;;1.35;0.50;;;17.80;74.40;;;;;;5051496;28;20115;-74
2023/03/19 08:44:37;;;;;;;0.95;0.47;;;17.80;74.40;;;;;;5050688;28;20083;-74
2023/03/19 08:47:03;;;;;;;1.30;0.50;;;17.80;74.40;;;;;;5050421;28;20100;-74
2023/03/19 08:49:28;;;;;;;0.85;0.40;;;17.80;74.40;;;;;;5051087;28;20028;-74
2023/03/19 08:51:54;;;;;;;1.13;0.60;;;17.80;74.50;;;;;;5049242;28;20564;-74
2023/03/19 08:54:20;;;;;;;1.88;0.68;;;17.80;74.30;;;;;;5049170;28;20016;-74
2023/03/19 08:56:45;;;;;;;1.10;0.60;;;17.80;74.30;;;;;;5050511;28;20141;-74
2023/03/19 08:59:11;;;;;;;1.10;0.50;;;17.80;74.30;;;;;;5049016;28;20137;-74
2023/03/19 09:01:37;;;;;;;2.20;0.60;;;17.80;74.40;;;;;;5047853;28;20025;-74
2023/03/19 09:04:02;;;;;;;1.63;0.57;;;17.80;74.30;;;;;;5048861;28;20551;-74
2023/03/19 09:06:29;;;;;;;1.02;0.40;;;17.80;74.40;;;;;;5032597;28;20484;-74
2023/03/19 09:08:54;;;;;;;0.40;0.40;;;17.70;74.20;;;;;;5050205;28;20507;-74
2023/03/19 09:11:22;;;;;;;1.88;0.60;;;17.70;74.40;;;;;;5049029;28;20010;-74
2023/03/19 09:13:47;;;;;;;0.60;0.40;;;17.70;74.20;;;;;;5049836;28;20036;-74
2023/03/19 09:16:13;;;;;;;1.00;0.45;;;17.80;74.20;;;;;;5050216;28;20055;-74
2023/03/19 09:18:39;;;;;;;1.10;0.52;;;17.80;74.30;;;;;;5049960;28;20492;-74
2023/03/19 09:21:04;;;;;;;0.93;0.30;;;17.70;74.20;;;;;;5048947;28;20032;-74
2023/03/19 09:23:30;;;;;;;0.75;0.43;;;17.70;74.30;;;;;;5048821;28;20033;-74
2023/03/19 09:25:56;;;;;;;1.23;0.50;;;17.70;74.20;;;;;;5048931;28;20059;-74
2023/03/19 09:28:21;;;;;;;1.85;0.57;;;17.80;74.40;;;;;;5050832;28;20036;-73
2023/03/19 09:30:48;;;;;;;1.20;0.55;;;17.70;74.40;;;;;;5048467;28;20067;-74
2023/03/19 09:33:14;;;;;;;1.02;0.60;;;17.70;74.40;;;;;;5048354;28;20056;-74
2023/03/19 09:35:40;;;;;;;0.95;0.50;;;17.70;74.40;;;;;;5052717;28;20044;-74
2023/03/19 09:38:06;;;;;;;1.20;0.50;;;17.70;74.40;;;;;;5034942;28;20055;-74
2023/03/19 09:40:41;;;;;;;2.35;0.50;;;17.70;74.40;;;;;;5034798;28;20393;-74
2023/03/19 09:43:22;;;;;;;1.08;0.50;;;17.70;74.40;;;;;;5034739;28;20072;-74
2023/03/19 09:45:47;;;;;;;1.88;0.50;;;17.70;74.40;;;;;;5035971;28;20018;-74
2023/03/19 09:48:17;;;;;;;1.65;0.60;;;17.70;74.40;;;;;;5051070;28;20030;-74
2023/03/19 09:50:42;;;;;;;0.98;0.50;;;17.70;74.50;;;;;;5051641;28;20021;-74
2023/03/19 09:53:19;;;;;;;1.38;0.57;;;17.70;74.40;;;;;;5034368;28;20034;-74
2023/03/19 09:55:52;;;;;;;1.10;0.63;;;17.70;74.40;;;;;;5034798;28;20388;-74
2023/03/19 09:58:30;;;;;;;1.40;0.50;;;17.70;74.40;;;;;;5041137;28;20111;-74
2023/03/19 10:00:55;;;;;;;3.33;0.60;;;17.70;74.40;;;;;;5038904;28;20419;-73
2023/03/19 10:03:25;;;;;;;1.75;0.70;;;17.70;74.50;;;;;;5037768;28;20071;-74
2023/03/19 10:05:56;;;;;;;1.08;0.47;;;17.70;74.50;;;;;;5054215;28;20049;-74
2023/03/19 10:08:35;;;;;;;1.83;0.65;;;17.60;74.40;;;;;;5055473;28;20029;-74
2023/03/19 10:11:15;;;;;;;3.03;0.50;;;17.70;74.40;;;;;;5055478;28;20021;-74
2023/03/19 10:14:00;;;;;;;0.85;0.50;;;17.60;74.50;;;;;;5054246;28;20021;-74
2023/03/19 10:16:26;;;;;;;2.75;0.68;;;17.60;74.50;;;;;;5054878;28;20029;-75
2023/03/19 10:18:55;;;;;;;2.28;0.40;;;17.70;73.90;;;;;;5054534;28;20017;-74
2023/03/19 10:21:33;;;;;;;2.08;0.47;;;17.70;73.40;;;;;;5054609;28;20615;-74
2023/03/19 10:24:06;;;;;;;0.80;0.40;;;17.70;73.00;;;;;;5053049;28;20033;-74
2023/03/19 10:26:36;;;;;;;0.60;0.30;;;17.70;72.80;;;;;;5054250;28;20039;-74
2023/03/19 10:29:09;;;;;;;2.83;0.50;;;17.70;72.70;;;;;;5054531;28;20025;-74
2023/03/19 10:31:43;;;;;;;3.13;0.55;;;17.70;72.50;;;;;;5054016;28;20057;-74
2023/03/19 10:34:30;;;;;;;1.27;0.57;;;17.70;72.50;;;;;;5055431;28;20104;-74
2023/03/19 10:37:16;;;;;;;3.50;0.52;;;17.70;72.40;;;;;;5053645;28;20505;-76
2023/03/19 10:39:42;;;;;;;0.77;0.40;;;17.80;72.30;;;;;;5037221;28;20040;-74
2023/03/19 10:42:33;;;;;;;1.58;0.40;;;18.00;71.80;;;;;;5053935;28;20484;-73
2023/03/19 10:45:20;;;;;;;1.67;0.50;;;18.10;71.30;;;;;;5055322;28;20033;-73
2023/03/19 10:47:46;;;;;;;1.80;0.47;;;18.10;71.10;;;;;;5055458;28;20017;-73
2023/03/19 10:50:22;;;;;;;0.98;0.40;;;18.20;71.00;;;;;;5054219;28;20508;-73
2023/03/19 10:52:51;;;;;;;0.85;0.50;;;18.30;70.90;;;;;;5053803;28;20128;-73
2023/03/19 10:55:24;;;;;;;2.95;0.50;;;18.30;70.70;;;;;;5053520;28;20060;-72
2023/03/19 10:57:55;;;;;;;0.50;0.50;;;18.30;70.50;;;;;;5055297;28;20029;-72
2023/03/19 11:00:24;;;;;;;1.17;0.65;;;18.40;70.60;;;;;;5037715;28;20492;-72
2023/03/19 11:02:55;;;;;;;0.35;0.30;;;18.40;70.30;;;;;;5055173;28;20033;-72
2023/03/19 11:05:20;;;;;;;1.38;0.47;;;18.50;70.20;;;;;;5054808;28;20037;-72
2023/03/19 11:08:05;;;;;;;1.38;0.60;;;18.50;70.00;;;;;;5054961;28;20029;-72
2023/03/19 11:10:34;;;;;;;1.00;0.30;;;18.60;69.70;;;;;;5053621;28;20021;-72
2023/03/19 11:13:05;;;;;;;1.15;0.52;;;18.60;69.70;;;;;;5037076;28;20070;-72
2023/03/19 11:15:36;;;;;;;1.13;0.55;;;18.60;69.60;;;;;;5037044;28;20039;-72
2023/03/19 11:18:27;;;;;;;1.30;0.50;;;18.70;69.50;;;;;;5053622;28;20469;-72
2023/03/19 11:21:03;;;;;;;2.10;0.85;;;18.70;69.40;;;;;;5036842;28;20448;-72
2023/03/19 11:23:28;;;;;;;1.15;0.43;;;18.80;69.30;;;;;;5053319;28;20078;-72
2023/03/19 11:25:57;;;;;;;2.13;0.60;;;18.80;69.00;;;;;;5053445;28;20103;-72
2023/03/19 11:28:25;;;;;;;0.35;0.30;;;18.80;68.90;;;;;;5054273;28;20013;-72
2023/03/19 11:30:50;;;;;;;1.20;0.50;;;18.90;68.90;;;;;;5053508;28;20021;-75
2023/03/19 11:33:31;;;;;;;1.40;0.47;;;18.90;68.70;;;;;;5054388;28;20029;-75
2023/03/19 11:36:12;;;;;;;1.27;0.68;;;18.90;68.70;;;;;;5054219;28;20074;-74
2023/03/19 11:38:47;;;;;;;0.75;0.40;;;19.00;68.60;;;;;;5053049;28;20108;-74
2023/03/19 11:41:41;;;;;;;0.85;0.47;;;19.00;68.50;;;;;;5036777;28;20036;-74
2023/03/19 11:44:48;;;;;;;0.63;0.40;;;19.00;68.40;;;;;;5053976;28;20025;-75
2023/03/19 11:47:23;;;;;;;0.80;0.50;;;19.10;68.30;;;;;;5031962;28;20037;-75
2023/03/19 11:49:58;;;;;;;2.00;0.55;;;19.10;68.20;;;;;;5031965;28;20037;-74
2023/03/19 11:52:59;;;;;;;0.98;0.40;;;19.10;68.20;;;;;;5032007;28;20398;-74
2023/03/19 11:55:27;;;;;;;1.73;0.60;;;19.10;68.00;;;;;;4992475;28;20053;-74
2023/03/19 11:58:14;;;;;;;1.38;0.50;;;19.20;68.00;;;;;;4991848;28;20085;-74
2023/03/19 12:00:50;;;;;;;0.95;0.63;;;19.20;67.80;;;;;;4992499;28;20507;-74
2023/03/19 12:03:52;;;;;;;1.70;0.60;;;19.20;67.80;;;;;;4992314;28;20105;-74
2023/03/19 12:06:26;;;;;;;2.47;0.75;;;19.20;67.70;;;;;;4971085;28;20039;-74
2023/03/19 12:09:18;;;;;;;0.50;0.40;;;19.30;67.80;;;;;;4976008;28;20027;-73
2023/03/19 12:11:47;;;;;;;0.95;0.50;;;19.30;67.60;;;;;;4947360;29;20036;-74
2023/03/19 12:14:21;;;;;;;1.13;0.50;;;19.30;67.50;;;;;;4950444;29;20036;-75
2023/03/19 12:16:51;;;;;;;1.45;0.90;;;19.30;67.50;;;;;;4949751;29;20120;-74
2023/03/19 12:19:29;;;;;;;0.82;0.40;;;19.30;67.50;;;;;;4950304;29;20053;-73
2023/03/19 12:22:10;;;;;;;1.42;0.47;;;19.30;67.40;;;;;;4949537;29;20082;-73
2023/03/19 12:24:56;;;;;;;0.75;0.50;;;19.30;67.20;;;;;;4919453;29;20047;-75
2023/03/19 12:27:25;;;;;;;1.30;0.28;;;19.40;67.20;;;;;;4914927;29;20040;-74
2023/03/19 12:30:32;;;;;;;0.40;0.30;;;19.40;67.20;;;;;;4915713;29;20036;-72
2023/03/19 12:33:21;;;;;;;1.92;0.50;;;19.40;66.90;;;;;;4970229;28;20113;-72
2023/03/19 12:35:49;;;;;;;2.72;0.60;;;19.50;67.00;;;;;;4972525;28;20038;-72
2023/03/19 12:38:48;;;;;;;0.85;0.60;;;19.50;66.90;;;;;;4972402;28;20027;-72
2023/03/19 12:41:19;;;;;;;0.98;0.50;;;19.50;66.70;;;;;;5007977;28;20030;-73
2023/03/19 12:44:01;;;;;;;0.30;0.30;;;19.50;66.80;;;;;;5007968;28;20045;-73
2023/03/19 12:46:37;;;;;;;1.70;0.60;;;19.50;66.70;;;;;;4993291;28;20027;-73
2023/03/19 12:49:13;;;;;;;1.92;0.52;;;19.60;66.70;;;;;;4987241;28;20466;-73
2023/03/19 12:51:40;;;;;;;1.15;0.65;;;19.60;66.60;;;;;;4995582;28;20053;-72
2023/03/19 12:54:33;;;;;;;1.15;0.50;;;19.60;66.60;;;;;;4977901;28;20410;-72
2023/03/19 12:57:07;;;;;;;0.75;0.30;;;19.60;66.50;;;;;;4994732;28;20030;-73